Beverly Hills, California
Current Conditions -  °F | °C
As of 12:51 AM on Sunday 26 Oct 2014 (Local Time) from KSMO Reporting Station
Clear Clear  
Wind Chill: 63°   Ceiling: Unl
Heat Index: 63°   Visibility: 10mi
Dew Point: 56°   Wind: 5mph
Humidity: 78%   Direction: 350°N
Pressure: 30"   Gusts: NA
Location:  34.07°N, 118.39°W
Report Text: KSMO 260751Z AUTO 35004KT 10SM CLR 17/13 A3000 RMK AO2 SLP158 T01720133 402440156 $
Loading
Personal Weather Stations






























Interactive Weather Map
Tropical Storm Tracking
New forecast layout! Learn more

10-Day Weather Forecast

Advertisements
Track Severe Weather on mobile